createdAt,value
2022-11-22T00:03:47.710Z,0.82
2022-11-22T00:08:53.302Z,0.86
2022-11-22T00:13:59.237Z,0.84
2022-11-22T00:19:04.870Z,0.83
2022-11-22T00:24:12.141Z,0.87
2022-11-22T00:29:18.498Z,0.89
2022-11-22T00:34:24.318Z,0.88
2022-11-22T00:39:30.398Z,0.80
2022-11-22T00:44:36.333Z,0.81
2022-11-22T00:49:42.002Z,0.86
2022-11-22T00:54:51.586Z,0.86
2022-11-22T01:00:00.806Z,0.86
2022-11-22T01:05:07.545Z,0.82
2022-11-22T01:10:13.444Z,0.83
2022-11-22T01:15:19.408Z,0.85
2022-11-22T01:20:25.329Z,0.82
2022-11-22T01:25:31.474Z,0.76
2022-11-22T01:30:38.767Z,0.74
2022-11-22T01:35:44.662Z,0.72
2022-11-22T01:40:50.367Z,0.69
2022-11-22T01:45:57.918Z,0.67
2022-11-22T01:51:09.855Z,0.62
2022-11-22T01:56:19.485Z,0.66
2022-11-22T02:01:25.398Z,0.67
2022-11-22T02:06:38.102Z,0.67
2022-11-22T02:11:48.445Z,0.65
2022-11-22T02:16:54.722Z,0.63
2022-11-22T02:22:07.850Z,0.62
2022-11-22T02:27:13.661Z,0.65
2022-11-22T02:32:19.530Z,0.69
2022-11-22T02:37:29.686Z,0.70
2022-11-22T02:42:35.820Z,0.69
2022-11-22T02:47:41.789Z,0.71
2022-11-22T02:52:47.474Z,0.76
2022-11-22T02:57:53.220Z,0.78
2022-11-22T03:02:59.293Z,0.77
2022-11-22T03:08:05.105Z,0.74
2022-11-22T03:13:10.784Z,0.77
2022-11-22T03:18:16.612Z,0.79
2022-11-22T03:23:22.332Z,0.79
2022-11-22T03:28:28.212Z,0.76
2022-11-22T03:33:34.627Z,0.75
2022-11-22T03:38:40.619Z,0.77
2022-11-22T03:43:46.293Z,0.79
2022-11-22T03:48:51.957Z,0.78
2022-11-22T03:53:58.968Z,0.72
2022-11-22T03:59:04.591Z,0.72
2022-11-22T04:04:10.357Z,0.76
2022-11-22T04:09:16.089Z,0.76
2022-11-22T04:14:40.547Z,0.70
2022-11-22T04:20:06.166Z,0.67
2022-11-22T04:25:14.937Z,0.69
2022-11-22T04:30:21.250Z,0.67
2022-11-22T04:35:27.095Z,0.65
2022-11-22T04:40:33.657Z,0.61
2022-11-22T04:45:39.340Z,0.59
2022-11-22T04:51:04.237Z,0.61
2022-11-22T04:56:09.905Z,0.57
2022-11-22T05:01:15.599Z,0.47
2022-11-22T05:06:21.530Z,0.37
2022-11-22T05:11:27.114Z,0.39
2022-11-22T05:16:32.758Z,0.42
2022-11-22T05:21:38.427Z,0.43
2022-11-22T05:26:44.314Z,0.39
2022-11-22T05:31:51.505Z,0.39
2022-11-22T05:36:57.551Z,0.39
2022-11-22T05:42:05.953Z,0.41
2022-11-22T05:47:12.014Z,0.40
2022-11-22T05:52:17.589Z,0.42
2022-11-22T05:57:23.485Z,0.47
2022-11-22T06:02:30.749Z,0.48
2022-11-22T06:07:36.729Z,0.47
2022-11-22T06:12:42.579Z,0.48
2022-11-22T06:17:48.188Z,0.54
2022-11-22T06:22:54.026Z,0.58
2022-11-22T06:28:01.402Z,0.58
2022-11-22T06:33:07.189Z,0.55
2022-11-22T06:38:12.953Z,0.60
2022-11-22T06:43:18.651Z,0.63
2022-11-22T06:48:24.964Z,0.62
2022-11-22T06:53:46.813Z,0.64
2022-11-22T06:58:54.816Z,0.66
2022-11-22T07:04:01.766Z,0.64
2022-11-22T07:09:10.122Z,0.63
2022-11-22T07:14:15.904Z,0.73
2022-11-22T07:19:21.553Z,0.79
2022-11-22T07:24:27.204Z,0.80
2022-11-22T07:29:33.061Z,0.77
2022-11-22T07:34:38.725Z,0.78
2022-11-22T07:39:44.667Z,0.83
2022-11-22T07:44:50.339Z,0.82
2022-11-22T07:49:55.963Z,0.80
2022-11-22T07:55:01.541Z,0.86
2022-11-22T08:00:09.227Z,0.93
2022-11-22T08:05:15.136Z,0.97
2022-11-22T08:10:21.723Z,0.97
2022-11-22T08:15:28.383Z,1.00
2022-11-22T08:20:34.261Z,1.05
2022-11-22T08:25:39.912Z,1.07
2022-11-22T08:30:45.637Z,1.11
2022-11-22T08:35:52.482Z,1.17
2022-11-22T08:40:58.864Z,1.23
2022-11-22T08:46:05.510Z,1.27
2022-11-22T08:51:14.552Z,1.27
2022-11-22T08:56:20.436Z,1.28
2022-11-22T09:01:26.201Z,1.31
2022-11-22T09:11:58.981Z,1.35
2022-11-22T09:17:06.195Z,1.37
2022-11-22T09:22:11.833Z,1.43
2022-11-22T09:27:17.443Z,1.48
2022-11-22T09:32:23.008Z,1.50
2022-11-22T09:37:28.868Z,1.54
2022-11-22T09:42:58.138Z,1.62
2022-11-22T09:48:16.774Z,1.68
2022-11-22T09:53:30.109Z,1.71
2022-11-22T09:58:41.073Z,1.67
2022-11-22T10:03:53.922Z,1.67
2022-11-22T10:09:11.464Z,1.70
2022-11-22T10:14:29.903Z,1.69
2022-11-22T10:19:44.107Z,1.80
2022-11-22T10:24:50.121Z,1.98
2022-11-22T10:30:01.591Z,2.07
2022-11-22T10:35:30.199Z,2.13
2022-11-22T10:40:43.940Z,2.18
2022-11-22T10:45:56.358Z,2.18
2022-11-22T10:51:12.532Z,2.23
2022-11-22T10:56:27.766Z,2.22
2022-11-22T11:01:42.107Z,2.23
2022-11-22T11:12:22.388Z,2.48
2022-11-22T11:17:32.332Z,2.56
2022-11-22T11:28:08.618Z,2.68
2022-11-22T11:33:21.168Z,2.74
2022-11-22T11:38:36.117Z,2.74
2022-11-22T11:43:45.833Z,2.78
2022-11-22T11:48:52.567Z,2.87
2022-11-22T11:54:06.056Z,2.82
2022-11-22T11:59:16.829Z,2.80
2022-11-22T12:04:26.057Z,2.86
2022-11-22T12:09:35.340Z,2.87
2022-11-22T12:15:09.793Z,2.89
2022-11-22T12:20:18.657Z,2.90
2022-11-22T12:25:33.685Z,2.85
2022-11-22T12:30:43.168Z,2.84
2022-11-22T12:35:50.235Z,2.77
2022-11-22T12:41:00.512Z,2.71
2022-11-22T12:46:13.933Z,2.70
2022-11-22T12:51:26.149Z,2.66
2022-11-22T12:56:41.330Z,2.64
2022-11-22T13:01:58.476Z,2.67
2022-11-22T13:07:15.170Z,2.62
2022-11-22T13:12:25.737Z,2.54
2022-11-22T13:17:36.175Z,2.53
2022-11-22T13:22:52.191Z,2.53
2022-11-22T13:28:01.192Z,2.51
2022-11-22T13:33:23.460Z,2.42
2022-11-22T13:38:30.239Z,2.33
2022-11-22T13:43:54.556Z,2.23
2022-11-22T13:49:15.482Z,2.14
2022-11-22T13:55:22.930Z,2.09
2022-11-22T14:00:48.265Z,1.98
2022-11-22T14:05:57.541Z,1.87
2022-11-22T14:11:17.881Z,1.85
2022-11-22T14:16:36.805Z,1.91
2022-11-22T14:21:50.358Z,1.90
2022-11-22T14:27:06.655Z,1.89
2022-11-22T14:32:18.807Z,1.79
2022-11-22T14:37:46.570Z,1.70
2022-11-22T14:42:57.854Z,1.63
2022-11-22T14:48:13.167Z,1.57
2022-11-22T14:53:27.140Z,1.50
2022-11-22T14:58:37.378Z,1.47
2022-11-22T15:09:10.446Z,1.47
2022-11-22T15:09:57.344Z,1.40
2022-11-22T15:59:48.524Z,1.19
2022-11-22T16:06:04.680Z,1.15
2022-11-22T16:10:26.984Z,1.16
2022-11-22T16:15:37.266Z,1.14
2022-11-22T16:20:58.403Z,1.13
2022-11-22T16:26:22.215Z,1.11
2022-11-22T16:31:30.308Z,1.05
2022-11-22T16:36:36.224Z,0.99
2022-11-22T16:41:42.156Z,0.94
2022-11-22T16:46:47.956Z,0.91
2022-11-22T16:51:54.119Z,0.89
2022-11-22T16:56:59.986Z,0.90
2022-11-22T17:02:09.889Z,0.93
2022-11-22T17:07:16.171Z,0.95
2022-11-22T17:12:30.485Z,0.89
2022-11-22T17:17:39.173Z,0.86
2022-11-22T17:22:44.849Z,0.83
2022-11-22T17:27:54.070Z,0.81
2022-11-22T17:33:00.171Z,0.79
2022-11-22T17:38:06.143Z,0.78
2022-11-22T17:43:11.798Z,0.74
2022-11-22T17:48:18.539Z,0.76
2022-11-22T17:53:24.859Z,0.77
2022-11-22T17:58:30.829Z,0.75
2022-11-22T18:03:36.758Z,0.76
2022-11-22T18:08:47.018Z,0.77
2022-11-22T18:13:53.311Z,0.74
2022-11-22T18:19:00.662Z,0.75
2022-11-22T18:24:08.709Z,0.79
2022-11-22T18:34:41.764Z,0.79
2022-11-22T18:39:47.897Z,0.79
2022-11-22T18:44:54.372Z,0.78
2022-11-22T18:50:00.354Z,0.76
2022-11-22T18:58:42.895Z,0.84
2022-11-22T19:03:48.935Z,0.81
2022-11-22T19:08:55.420Z,0.83
2022-11-22T19:14:01.417Z,0.86
2022-11-22T19:19:09.181Z,0.86
2022-11-22T19:24:15.204Z,0.84
2022-11-22T19:29:21.613Z,0.88
2022-11-22T19:34:28.562Z,0.89
2022-11-22T19:39:34.220Z,0.83
2022-11-22T19:44:39.917Z,0.81
2022-11-22T19:49:45.606Z,0.84
2022-11-22T19:54:51.268Z,0.87
2022-11-22T19:59:59.993Z,0.84
2022-11-22T20:05:06.780Z,0.84
2022-11-22T20:10:12.734Z,0.84
2022-11-22T20:15:19.084Z,0.81
2022-11-22T20:20:25.050Z,0.81
2022-11-22T20:25:30.906Z,0.84
2022-11-22T20:30:36.700Z,0.85
2022-11-22T20:35:42.483Z,0.83
2022-11-22T20:40:48.213Z,0.89
2022-11-22T20:46:02.397Z,0.95
2022-11-22T20:51:10.745Z,0.90
2022-11-22T20:56:17.957Z,0.88
2022-11-22T21:01:26.916Z,0.87
2022-11-22T21:06:34.711Z,0.84
2022-11-22T21:11:41.229Z,0.82
2022-11-22T21:16:47.120Z,0.85
2022-11-22T21:21:53.344Z,0.83
2022-11-22T21:26:59.470Z,0.80
2022-11-22T21:32:05.806Z,0.79
2022-11-22T21:37:11.780Z,0.85
2022-11-22T21:42:17.602Z,0.90
2022-11-22T21:47:23.942Z,0.92
2022-11-22T21:52:30.652Z,0.90
2022-11-22T21:57:36.289Z,0.89
2022-11-22T22:02:42.048Z,0.94
2022-11-22T22:07:53.158Z,0.94
2022-11-22T22:12:59.610Z,0.86
2022-11-22T22:18:05.489Z,0.87
2022-11-22T22:23:11.440Z,0.96
2022-11-22T22:28:17.228Z,0.95
2022-11-22T22:33:22.961Z,0.86
2022-11-22T22:38:28.865Z,0.81
2022-11-22T22:43:36.764Z,0.82
2022-11-22T22:48:43.179Z,0.86
2022-11-22T22:53:49.637Z,0.89
2022-11-22T22:58:57.083Z,0.86
2022-11-22T23:04:03.644Z,0.83
2022-11-22T23:09:11.249Z,0.78
2022-11-22T23:14:18.804Z,0.78
2022-11-22T23:19:24.696Z,0.72
2022-11-22T23:24:33.122Z,0.69
2022-11-22T23:29:38.941Z,0.70
2022-11-22T23:34:44.637Z,0.70
2022-11-22T23:39:51.455Z,0.75
2022-11-22T23:44:57.062Z,0.74
2022-11-22T23:50:03.012Z,0.72
2022-11-22T23:55:09.600Z,0.74
